Time,TemperatureF,DewpointF,PressureIn,WindDirection,WindDirectionDegrees,WindSpeedMPH,WindSpeedGustMPH,Humidity,HourlyPrecipIn,Conditions,Clouds,dailyrainin,SoftwareType,DateUTC
2013-04-20 12:00:00,78.0,-99.9,30.05,SSW,200,7.0,8.0,-999,-99.99,,,-99.99,,2013-04-20 16:00:00,
2013-04-20 12:23:00,78.0,-99.9,30.05,SSW,200,7.0,8.0,-999,-99.99,,,-99.99,,2013-04-20 16:23:00,
2013-04-20 12:33:00,78.0,-99.9,30.05,SSW,200,7.0,8.0,-999,-99.99,,,-99.99,,2013-04-20 16:33:00,
2013-04-20 12:42:00,78.0,-99.9,30.05,SSW,200,7.0,8.0,-999,-99.99,,,-99.99,,2013-04-20 16:42:00,
2013-04-20 12:53:00,78.0,-99.9,30.05,SSW,200,7.0,8.0,-999,-99.99,,,-99.99,,2013-04-20 16:53:00,
2013-04-20 13:00:00,79.0,-99.9,30.04,SSW,210,6.0,7.0,-999,-99.99,,,-99.99,,2013-04-20 17:00:00,
2013-04-20 13:23:00,79.0,-99.9,30.04,SSW,210,6.0,7.0,-999,-99.99,,,-99.99,,2013-04-20 17:23:00,
2013-04-20 13:33:00,79.0,-99.9,30.04,SSW,210,6.0,7.0,-999,-99.99,,,-99.99,,2013-04-20 17:33:00,
2013-04-20 13:42:00,79.0,-99.9,30.04,SSW,210,6.0,7.0,-999,-99.99,,,-99.99,,2013-04-20 17:42:00,
2013-04-20 13:52:00,79.0,-99.9,30.04,SSW,210,6.0,7.0,-999,-99.99,,,-99.99,,2013-04-20 17:52:00,
2013-04-20 14:00:00,79.0,-99.9,30.03,SW,230,5.0,5.0,-999,-99.99,,,-99.99,,2013-04-20 18:00:00,
2013-04-20 14:22:00,79.0,-99.9,30.03,SW,230,5.0,5.0,-999,-99.99,,,-99.99,,2013-04-20 18:22:00,
2013-04-20 14:32:00,79.0,-99.9,30.03,SW,230,5.0,5.0,-999,-99.99,,,-99.99,,2013-04-20 18:32:00,
2013-04-20 14:42:00,79.0,-99.9,30.03,SW,230,5.0,5.0,-999,-99.99,,,-99.99,,2013-04-20 18:42:00,
2013-04-20 14:53:00,79.0,-99.9,30.03,SW,230,5.0,5.0,-999,-99.99,,,-99.99,,2013-04-20 18:53:00,
2013-04-20 15:00:00,80.0,-99.9,30.01,West,260,7.0,8.0,-999,-99.99,,,-99.99,,2013-04-20 19:00:00,
2013-04-20 15:22:00,80.0,-99.9,30.01,West,260,7.0,8.0,-999,-99.99,,,-99.99,,2013-04-20 19:22:00,
2013-04-20 15:32:00,80.0,-99.9,30.01,West,260,7.0,8.0,-999,-99.99,,,-99.99,,2013-04-20 19:32:00,
2013-04-20 15:42:00,80.0,-99.9,30.01,West,260,7.0,8.0,-999,-99.99,,,-99.99,,2013-04-20 19:42:00,
2013-04-20 15:52:00,80.0,-99.9,30.01,West,260,7.0,8.0,-999,-99.99,,,-99.99,,2013-04-20 19:52:00,
2013-04-20 16:00:00,80.0,-99.9,29.98,West,260,7.0,7.0,-999,-99.99,,,-99.99,,2013-04-20 20:00:00,
2013-04-20 16:22:00,80.0,-99.9,29.98,West,260,7.0,7.0,-999,-99.99,,,-99.99,,2013-04-20 20:22:00,
2013-04-20 16:32:00,80.0,-99.9,29.98,West,260,7.0,7.0,-999,-99.99,,,-99.99,,2013-04-20 20:32:00,
2013-04-20 16:42:00,80.0,-99.9,29.98,West,260,7.0,7.0,-999,-99.99,,,-99.99,,2013-04-20 20:42:00,
2013-04-20 16:52:00,80.0,-99.9,29.98,West,260,7.0,7.0,-999,-99.99,,,-99.99,,2013-04-20 20:52:00,
2013-04-20 17:00:00,81.0,-99.9,29.97,West,260,2.0,2.0,-999,-99.99,,,-99.99,,2013-04-20 21:00:00,
2013-04-20 17:22:00,81.0,-99.9,29.97,West,260,2.0,2.0,-999,-99.99,,,-99.99,,2013-04-20 21:22:00,
2013-04-20 17:33:00,81.0,-99.9,29.97,West,260,2.0,2.0,-999,-99.99,,,-99.99,,2013-04-20 21:33:00,
2013-04-20 17:43:00,81.0,-99.9,29.97,West,260,2.0,2.0,-999,-99.99,,,-99.99,,2013-04-20 21:43:00,
2013-04-20 17:53:00,81.0,-99.9,29.97,West,260,2.0,2.0,-999,-99.99,,,-99.99,,2013-04-20 21:53:00,
2013-04-20 18:00:00,81.0,-99.9,29.98,NNW,330,6.0,7.0,-999,-99.99,,,-99.99,,2013-04-20 22:00:00,
2013-04-20 18:23:00,81.0,-99.9,29.98,NNW,330,6.0,7.0,-999,-99.99,,,-99.99,,2013-04-20 22:23:00,
2013-04-20 18:33:00,81.0,-99.9,29.98,NNW,330,6.0,7.0,-999,-99.99,,,-99.99,,2013-04-20 22:33:00,
2013-04-20 18:42:00,81.0,-99.9,29.98,NNW,330,6.0,7.0,-999,-99.99,,,-99.99,,2013-04-20 22:42:00,
2013-04-20 18:53:00,81.0,-99.9,29.98,NNW,330,6.0,7.0,-999,-99.99,,,-99.99,,2013-04-20 22:53:00,
2013-04-20 19:00:00,80.0,-99.9,-100.00,NNE,30,11.0,-999.0,-999,-99.99,,,-99.99,,2013-04-20 23:00:00,
2013-04-20 19:22:00,80.0,-99.9,-100.00,NNE,30,11.0,-999.0,-999,-99.99,,,-99.99,,2013-04-20 23:22:00,
2013-04-20 19:32:00,80.0,-99.9,-100.00,NNE,30,11.0,-999.0,-999,-99.99,,,-99.99,,2013-04-20 23:32:00,
2013-04-20 19:42:00,80.0,-99.9,-100.00,NNE,30,11.0,-999.0,-999,-99.99,,,-99.99,,2013-04-20 23:42:00,
2013-04-20 19:53:00,80.0,-99.9,-100.00,NNE,30,11.0,-999.0,-999,-99.99,,,-99.99,,2013-04-20 23:53:00,